createdAt,value
2019-05-29T00:01:19.844Z,100873.22
2019-05-29T00:03:46.025Z,100881.37
2019-05-29T00:06:14.470Z,100883.42
2019-05-29T00:08:43.163Z,100885.91
2019-05-29T00:11:12.254Z,100892.50
2019-05-29T00:13:40.791Z,100887.52
2019-05-29T00:16:10.279Z,100896.59
2019-05-29T00:18:39.134Z,100892.25
2019-05-29T00:21:08.310Z,100902.34
2019-05-29T00:23:37.148Z,100900.08
2019-05-29T00:26:06.338Z,100893.36
2019-05-29T00:28:34.849Z,100903.05
2019-05-29T00:31:03.412Z,100909.56
2019-05-29T00:33:31.779Z,100915.22
2019-05-29T00:36:00.254Z,100915.00
2019-05-29T00:38:29.144Z,100919.50
2019-05-29T00:40:57.935Z,100913.33
2019-05-29T00:43:26.327Z,100919.41
2019-05-29T00:45:54.799Z,100921.77
2019-05-29T00:48:23.588Z,100911.73
2019-05-29T00:50:52.046Z,100918.53
2019-05-29T00:53:20.859Z,100916.17
2019-05-29T00:55:49.245Z,100918.63
2019-05-29T00:58:17.683Z,100922.01
2019-05-29T01:00:46.229Z,100928.45
2019-05-29T01:03:15.869Z,100934.92
2019-05-29T01:05:44.813Z,100942.14
2019-05-29T01:08:14.430Z,100937.84
2019-05-29T01:10:43.008Z,100940.75
2019-05-29T01:13:11.384Z,100948.47
2019-05-29T01:15:39.862Z,100955.37
2019-05-29T01:18:08.379Z,100957.09
2019-05-29T01:20:37.236Z,100960.69
2019-05-29T01:23:05.599Z,100962.67
2019-05-29T01:25:34.014Z,100965.44
2019-05-29T01:28:02.538Z,100960.08
2019-05-29T01:30:31.002Z,100971.31
2019-05-29T01:32:59.445Z,100969.41
2019-05-29T01:35:27.893Z,100969.97
2019-05-29T01:37:56.396Z,100978.02
2019-05-29T01:40:27.939Z,100985.04
2019-05-29T01:42:55.003Z,100989.75
2019-05-29T01:45:23.631Z,100998.14
2019-05-29T01:47:52.085Z,101001.11
2019-05-29T01:50:21.750Z,101001.01
2019-05-29T01:52:50.725Z,101006.80
2019-05-29T01:55:19.824Z,101008.40
2019-05-29T01:57:48.307Z,101009.98
2019-05-29T02:00:17.807Z,101017.52
2019-05-29T02:02:46.336Z,101017.66
2019-05-29T02:05:16.063Z,101020.09
2019-05-29T02:07:44.629Z,101016.81
2019-05-29T02:10:13.458Z,101022.17
2019-05-29T02:12:41.827Z,101023.08
2019-05-29T02:15:24.751Z,101028.95
2019-05-29T02:17:41.149Z,101030.66
2019-05-29T02:20:10.202Z,101028.95
2019-05-29T02:22:38.676Z,101030.22
2019-05-29T02:25:07.592Z,101032.28
2019-05-29T02:27:36.407Z,101040.43
2019-05-29T02:30:08.193Z,101050.39
2019-05-29T02:32:36.802Z,101045.50
2019-05-29T02:35:08.811Z,101048.36
2019-05-29T02:37:37.276Z,101049.81
2019-05-29T02:40:07.401Z,101050.14
2019-05-29T02:42:35.860Z,101056.77
2019-05-29T02:45:05.959Z,101062.96
2019-05-29T02:47:34.375Z,101061.30
2019-05-29T02:50:03.498Z,101060.75
2019-05-29T02:52:31.895Z,101059.16
2019-05-29T02:55:00.286Z,101059.81
2019-05-29T02:57:29.114Z,101061.66
2019-05-29T02:59:57.745Z,101064.02
2019-05-29T03:02:27.793Z,101072.38
2019-05-29T03:04:56.536Z,101081.83
2019-05-29T03:07:26.343Z,101088.46
2019-05-29T03:09:54.957Z,101094.14
2019-05-29T03:12:24.929Z,101101.35
2019-05-29T03:14:53.429Z,101100.08
2019-05-29T03:17:23.699Z,101098.08
2019-05-29T03:19:52.407Z,101123.22
2019-05-29T03:22:21.047Z,101125.13
2019-05-29T03:24:49.502Z,101127.66
2019-05-29T03:27:17.940Z,101134.71
2019-05-29T03:29:46.320Z,101134.23
2019-05-29T03:32:14.894Z,101142.93
2019-05-29T03:34:46.941Z,101147.61
2019-05-29T03:37:14.106Z,101155.34
2019-05-29T03:39:42.543Z,101152.28
2019-05-29T03:42:11.007Z,101163.28
2019-05-29T03:44:39.436Z,101159.38
2019-05-29T03:47:07.884Z,101170.43
2019-05-29T03:49:37.446Z,101180.55
2019-05-29T03:52:05.973Z,101184.54
2019-05-29T03:54:35.464Z,101193.27
2019-05-29T03:57:04.053Z,101192.67
2019-05-29T03:59:32.749Z,101199.05
2019-05-29T04:02:01.356Z,101200.64
2019-05-29T04:04:31.374Z,101206.00
2019-05-29T04:07:00.578Z,101202.78
2019-05-29T04:09:29.288Z,101211.15
2019-05-29T04:11:58.112Z,101212.33
2019-05-29T04:14:27.614Z,101215.90
2019-05-29T04:16:59.602Z,101212.00
2019-05-29T04:19:27.836Z,101226.56
2019-05-29T04:22:08.574Z,101235.15
2019-05-29T04:24:39.461Z,101240.27
2019-05-29T04:27:09.728Z,101240.61
2019-05-29T04:29:38.470Z,101245.62
2019-05-29T04:32:06.995Z,101246.91
2019-05-29T04:34:36.318Z,101248.31
2019-05-29T04:37:07.436Z,101257.88
2019-05-29T04:39:36.933Z,101257.73
2019-05-29T04:42:05.525Z,101254.22
2019-05-29T04:44:35.813Z,101255.88
2019-05-29T04:47:10.922Z,101263.14
2019-05-29T04:49:36.153Z,101272.35
2019-05-29T04:52:04.882Z,101269.62
2019-05-29T04:54:35.238Z,101277.58
2019-05-29T04:57:04.057Z,101274.70
2019-05-29T04:59:33.027Z,101275.56
2019-05-29T05:02:01.657Z,101282.56
2019-05-29T05:04:31.000Z,101287.09
2019-05-29T05:06:59.514Z,101290.73
2019-05-29T05:09:29.230Z,101292.20
2019-05-29T05:11:57.750Z,101299.84
2019-05-29T05:14:26.203Z,101308.41
2019-05-29T05:16:54.628Z,101321.47
2019-05-29T05:19:23.057Z,101312.25
2019-05-29T05:21:51.474Z,101320.64
2019-05-29T05:24:20.192Z,101326.53
2019-05-29T05:26:48.723Z,101324.88
2019-05-29T05:29:17.487Z,101334.02
2019-05-29T05:31:45.842Z,101330.98
2019-05-29T05:34:14.246Z,101342.68
2019-05-29T05:36:42.769Z,101344.48
2019-05-29T05:39:11.148Z,101345.41
2019-05-29T05:41:39.692Z,101358.80
2019-05-29T05:44:08.835Z,101355.72
2019-05-29T05:46:37.233Z,101354.08
2019-05-29T05:49:06.830Z,101359.19
2019-05-29T05:51:38.354Z,101360.13
2019-05-29T05:54:05.515Z,101369.53
2019-05-29T05:56:33.965Z,101377.17
2019-05-29T05:59:02.454Z,101377.23
2019-05-29T06:01:31.759Z,101374.66
2019-05-29T06:04:00.397Z,101384.48
2019-05-29T06:06:28.843Z,101387.48
2019-05-29T06:08:57.290Z,101396.52
2019-05-29T06:11:25.696Z,101401.84
2019-05-29T06:13:54.445Z,101410.89
2019-05-29T06:16:22.923Z,101416.77
2019-05-29T06:18:51.616Z,101421.08
2019-05-29T06:21:20.064Z,101422.03
2019-05-29T06:23:48.555Z,101416.52
2019-05-29T06:26:17.075Z,101420.59
2019-05-29T06:28:45.641Z,101419.33
2019-05-29T06:31:14.111Z,101417.31
2019-05-29T06:33:43.680Z,101424.30
2019-05-29T06:36:12.663Z,101430.37
2019-05-29T06:38:42.186Z,101424.05
2019-05-29T06:41:10.907Z,101433.28
2019-05-29T06:43:39.882Z,101432.39
2019-05-29T06:46:08.528Z,101439.65
2019-05-29T06:48:46.672Z,101440.71
2019-05-29T06:51:07.839Z,101440.48
2019-05-29T06:53:37.623Z,101441.30
2019-05-29T06:56:06.408Z,101441.16
2019-05-29T06:58:35.906Z,101443.45
2019-05-29T07:01:04.471Z,101449.02
2019-05-29T07:03:32.834Z,101458.17
2019-05-29T07:06:01.400Z,101460.66
2019-05-29T07:08:38.767Z,101467.89
2019-05-29T07:11:00.041Z,101468.20
2019-05-29T07:13:28.417Z,101471.67
2019-05-29T07:15:56.778Z,101478.81
2019-05-29T07:18:25.238Z,101474.08
2019-05-29T07:20:54.022Z,101483.11
2019-05-29T07:23:22.668Z,101489.11
2019-05-29T07:25:51.156Z,101488.14
2019-05-29T07:28:19.800Z,101486.95
2019-05-29T07:30:59.409Z,101491.73
2019-05-29T07:33:18.510Z,101495.85
2019-05-29T07:35:47.804Z,101493.73
2019-05-29T07:38:16.570Z,101501.58
2019-05-29T07:40:47.562Z,101505.84
2019-05-29T07:43:15.597Z,101512.62
2019-05-29T07:45:44.152Z,101511.19
2019-05-29T07:48:12.645Z,101518.77
2019-05-29T07:50:42.140Z,101519.77
2019-05-29T07:53:10.666Z,101511.36
2019-05-29T07:55:40.394Z,101513.84
2019-05-29T07:58:09.347Z,101519.30
2019-05-29T08:01:01.079Z,101520.66
2019-05-29T08:03:08.708Z,101526.52
2019-05-29T08:05:37.174Z,101531.91
2019-05-29T08:08:05.599Z,101537.08
2019-05-29T08:10:34.157Z,101538.67
2019-05-29T08:13:02.535Z,101538.61
2019-05-29T08:15:30.981Z,101536.83
2019-05-29T08:17:59.670Z,101533.50
2019-05-29T08:20:28.458Z,101531.83
2019-05-29T08:22:57.147Z,101538.38
2019-05-29T08:25:25.595Z,101534.59
2019-05-29T08:27:54.012Z,101533.03
2019-05-29T08:30:22.605Z,101541.82
2019-05-29T08:32:51.348Z,101547.66
2019-05-29T08:35:19.810Z,101544.78
2019-05-29T08:37:49.141Z,101549.23
2019-05-29T08:40:18.425Z,101551.24
2019-05-29T08:42:47.422Z,101553.28
2019-05-29T08:45:17.844Z,101548.68
2019-05-29T08:47:46.211Z,101558.03
2019-05-29T08:50:18.513Z,101562.33
2019-05-29T08:52:45.984Z,101574.08
2019-05-29T08:55:14.776Z,101563.39
2019-05-29T08:57:44.229Z,101575.72
2019-05-29T09:00:13.470Z,101572.34
2019-05-29T09:02:42.702Z,101570.53
2019-05-29T09:05:11.398Z,101574.47
2019-05-29T09:07:39.748Z,101576.22
2019-05-29T09:10:09.456Z,101585.50
2019-05-29T09:12:38.360Z,101581.23
2019-05-29T09:15:08.387Z,101584.98
2019-05-29T09:17:37.363Z,101586.36
2019-05-29T09:20:07.704Z,101585.64
2019-05-29T09:22:37.617Z,101586.08
2019-05-29T09:25:06.647Z,101593.34
2019-05-29T09:27:35.253Z,101591.53
2019-05-29T09:30:07.289Z,101589.20
2019-05-29T09:32:49.532Z,101588.16
2019-05-29T09:35:06.344Z,101592.32
2019-05-29T09:37:34.789Z,101601.77
2019-05-29T09:40:03.505Z,101591.77
2019-05-29T09:42:31.924Z,101588.66
2019-05-29T09:45:00.381Z,101602.36
2019-05-29T09:47:28.842Z,101605.98
2019-05-29T09:49:57.311Z,101600.38
2019-05-29T09:52:25.707Z,101601.22
2019-05-29T09:54:54.670Z,101607.97
2019-05-29T09:57:23.228Z,101614.80
2019-05-29T09:59:53.876Z,101616.72
2019-05-29T10:02:21.935Z,101614.42
2019-05-29T10:04:50.459Z,101618.30
2019-05-29T10:07:18.909Z,101612.95
2019-05-29T10:09:47.321Z,101616.37
2019-05-29T10:12:15.835Z,101616.00
2019-05-29T10:14:44.290Z,101617.52
2019-05-29T10:17:13.332Z,101631.00
2019-05-29T10:19:41.875Z,101623.72
2019-05-29T10:22:10.273Z,101630.12
2019-05-29T10:24:38.752Z,101626.92
2019-05-29T10:27:07.268Z,101631.44
2019-05-29T10:29:35.749Z,101636.73
2019-05-29T10:32:04.274Z,101626.95
2019-05-29T10:34:32.735Z,101627.64
2019-05-29T10:37:01.275Z,101626.64
2019-05-29T10:39:29.662Z,101624.94
2019-05-29T10:41:58.046Z,101627.13
2019-05-29T10:44:26.952Z,101631.66
2019-05-29T10:46:56.606Z,101634.04
2019-05-29T10:49:25.454Z,101631.30
2019-05-29T10:52:12.893Z,101628.45
2019-05-29T10:54:24.132Z,101627.56
2019-05-29T10:56:53.058Z,101624.52
2019-05-29T10:59:21.633Z,101636.54
2019-05-29T11:01:51.284Z,101642.26
2019-05-29T11:04:20.313Z,101646.95
2019-05-29T11:06:50.033Z,101642.95
2019-05-29T11:09:18.774Z,101638.06
2019-05-29T11:11:48.447Z,101633.82
2019-05-29T11:14:17.135Z,101630.36
2019-05-29T11:16:46.818Z,101638.64
2019-05-29T11:19:15.486Z,101642.57
2019-05-29T11:21:44.332Z,101638.34
2019-05-29T11:24:12.779Z,101626.92
2019-05-29T11:26:41.234Z,101643.20
2019-05-29T11:29:10.079Z,101647.14
2019-05-29T11:31:38.526Z,101644.03
2019-05-29T11:34:07.092Z,101649.83
2019-05-29T11:36:35.549Z,101635.20
2019-05-29T11:39:06.435Z,101636.35
2019-05-29T11:41:34.923Z,101627.37
2019-05-29T11:44:03.439Z,101631.02
2019-05-29T11:46:31.993Z,101629.77
2019-05-29T11:49:00.394Z,101626.20
2019-05-29T11:51:28.836Z,101635.17
2019-05-29T11:53:57.592Z,101630.88
2019-05-29T11:56:26.217Z,101631.11
2019-05-29T11:58:54.865Z,101629.65
2019-05-29T12:01:23.318Z,101631.00
2019-05-29T12:04:15.448Z,101623.20
2019-05-29T12:06:22.162Z,101624.77
2019-05-29T12:08:51.465Z,101631.16
2019-05-29T12:11:19.965Z,101636.95
2019-05-29T12:13:48.338Z,101633.47
2019-05-29T12:16:17.189Z,101627.86
2019-05-29T12:18:45.639Z,101624.47
2019-05-29T12:21:14.357Z,101623.16
2019-05-29T12:23:43.042Z,101634.77
2019-05-29T12:26:21.735Z,101634.77
2019-05-29T12:28:41.910Z,101625.91
2019-05-29T12:31:10.433Z,101627.94
2019-05-29T12:33:38.914Z,101628.84
2019-05-29T12:36:07.730Z,101631.27
2019-05-29T12:38:36.150Z,101638.05
2019-05-29T12:41:05.103Z,101629.29
2019-05-29T12:43:33.568Z,101621.03
2019-05-29T12:46:02.243Z,101622.45
2019-05-29T12:48:30.729Z,101638.83
2019-05-29T12:51:00.248Z,101626.23
2019-05-29T12:53:31.257Z,101624.16
2019-05-29T12:56:00.543Z,101633.58
2019-05-29T12:58:29.302Z,101623.87
2019-05-29T13:00:58.561Z,101622.94
2019-05-29T13:03:27.149Z,101625.66
2019-05-29T13:05:56.053Z,101626.02
2019-05-29T13:08:24.939Z,101621.70
2019-05-29T13:10:54.244Z,101623.91
2019-05-29T13:13:22.941Z,101630.56
2019-05-29T13:15:51.685Z,101627.41
2019-05-29T13:18:20.145Z,101631.22
2019-05-29T13:20:48.516Z,101625.50
2019-05-29T13:23:16.967Z,101629.51
2019-05-29T13:25:45.446Z,101620.06
2019-05-29T13:28:13.997Z,101622.78
2019-05-29T13:30:42.537Z,101623.00
2019-05-29T13:33:11.010Z,101617.58
2019-05-29T13:35:39.555Z,101616.31
2019-05-29T13:38:08.112Z,101611.62
2019-05-29T13:40:36.589Z,101618.69
2019-05-29T13:43:13.161Z,101619.75
2019-05-29T13:45:35.350Z,101613.20
2019-05-29T13:48:05.227Z,101623.06
2019-05-29T13:50:33.925Z,101629.75
2019-05-29T13:53:03.539Z,101623.23
2019-05-29T13:55:32.273Z,101624.13
2019-05-29T13:58:01.642Z,101630.64
2019-05-29T14:00:34.418Z,101627.12
2019-05-29T14:03:02.456Z,101631.03
2019-05-29T14:05:30.885Z,101638.03
2019-05-29T14:08:00.525Z,101634.13
2019-05-29T14:10:29.140Z,101634.48
2019-05-29T14:12:58.836Z,101630.53
2019-05-29T14:15:27.520Z,101629.45
2019-05-29T14:17:56.086Z,101633.51
2019-05-29T14:20:24.599Z,101631.71
2019-05-29T14:22:52.991Z,101634.75
2019-05-29T14:25:21.583Z,101640.29
2019-05-29T14:27:50.362Z,101631.71
2019-05-29T14:30:19.235Z,101646.43
2019-05-29T14:32:48.092Z,101646.38
2019-05-29T14:35:16.709Z,101650.80
2019-05-29T14:37:45.259Z,101653.90
2019-05-29T14:40:14.380Z,101653.13
2019-05-29T14:42:42.905Z,101656.33
2019-05-29T14:45:14.229Z,101648.70
2019-05-29T14:47:42.763Z,101646.22
2019-05-29T14:50:13.529Z,101640.13
2019-05-29T14:52:42.109Z,101650.77
2019-05-29T14:55:17.451Z,101653.98
2019-05-29T14:57:41.307Z,101643.53
2019-05-29T15:00:24.428Z,101656.86
2019-05-29T15:02:44.432Z,101646.39
2019-05-29T15:05:14.960Z,101659.35
2019-05-29T15:07:43.769Z,101664.55
2019-05-29T15:10:24.989Z,101671.34
2019-05-29T15:12:42.622Z,101671.58
2019-05-29T15:15:15.606Z,101669.28
2019-05-29T15:17:42.480Z,101670.21
2019-05-29T15:20:12.970Z,101669.14
2019-05-29T15:22:42.360Z,101666.20
2019-05-29T15:25:19.990Z,101666.65
2019-05-29T15:27:41.440Z,101661.17
2019-05-29T15:30:11.546Z,101661.13
2019-05-29T15:32:41.351Z,101661.21
2019-05-29T15:35:14.362Z,101661.96
2019-05-29T15:37:40.477Z,101666.63
2019-05-29T15:40:10.862Z,101670.84
2019-05-29T15:42:39.529Z,101663.35
2019-05-29T15:45:09.721Z,101667.41
2019-05-29T15:47:38.327Z,101664.16
2019-05-29T15:50:09.172Z,101666.25
2019-05-29T15:52:37.836Z,101665.09
2019-05-29T15:55:22.431Z,101666.16
2019-05-29T15:57:38.558Z,101658.61
2019-05-29T16:00:11.869Z,101659.80
2019-05-29T16:02:42.198Z,101660.71
2019-05-29T16:05:13.171Z,101667.83
2019-05-29T16:07:41.830Z,101663.27
2019-05-29T16:10:14.667Z,101667.27
2019-05-29T16:12:41.618Z,101668.94
2019-05-29T16:15:11.433Z,101668.88
2019-05-29T16:17:40.080Z,101668.53
2019-05-29T16:20:10.519Z,101673.59
2019-05-29T16:22:39.215Z,101673.42
2019-05-29T16:25:08.344Z,101681.34
2019-05-29T16:27:36.720Z,101688.47
2019-05-29T16:30:08.975Z,101684.05
2019-05-29T16:32:37.556Z,101690.11
2019-05-29T16:35:08.441Z,101682.73
2019-05-29T16:37:37.247Z,101696.09
2019-05-29T16:40:08.498Z,101698.41
2019-05-29T16:42:37.033Z,101707.06
2019-05-29T16:45:08.840Z,101715.59
2019-05-29T16:47:37.316Z,101708.09
2019-05-29T16:50:08.621Z,101707.18
2019-05-29T16:52:38.989Z,101711.32
2019-05-29T16:55:07.907Z,101706.23
2019-05-29T16:57:36.357Z,101707.58
2019-05-29T17:00:13.606Z,101709.99
2019-05-29T17:02:42.408Z,101707.50
2019-05-29T17:05:11.334Z,101714.45
2019-05-29T17:07:39.945Z,101716.92
2019-05-29T17:10:10.674Z,101718.71
2019-05-29T17:12:39.463Z,101718.39
2019-05-29T17:15:16.954Z,101726.30
2019-05-29T17:17:45.642Z,101719.11
2019-05-29T17:20:14.728Z,101722.05
2019-05-29T17:22:43.181Z,101722.88
2019-05-29T17:25:11.804Z,101722.45
2019-05-29T17:27:40.275Z,101726.10
2019-05-29T17:30:09.102Z,101726.50
2019-05-29T17:32:37.555Z,101728.37
2019-05-29T17:35:08.072Z,101730.99
2019-05-29T17:37:36.895Z,101733.95
2019-05-29T17:40:08.567Z,101740.38
2019-05-29T17:42:37.016Z,101739.44
2019-05-29T17:45:08.846Z,101739.34
2019-05-29T17:47:38.153Z,101739.70
2019-05-29T17:50:08.181Z,101740.71
2019-05-29T17:52:36.652Z,101740.25
2019-05-29T17:55:09.211Z,101742.90
2019-05-29T17:57:37.685Z,101745.55
2019-05-29T18:00:11.273Z,101746.80
2019-05-29T18:02:51.503Z,101755.34
2019-05-29T18:05:12.391Z,101753.55
2019-05-29T18:07:40.912Z,101765.52
2019-05-29T18:10:10.761Z,101768.10
2019-05-29T18:12:39.677Z,101767.46
2019-05-29T18:15:08.590Z,101769.61
2019-05-29T18:17:37.056Z,101775.02
2019-05-29T18:20:07.101Z,101774.17
2019-05-29T18:22:35.665Z,101770.67
2019-05-29T18:25:07.638Z,101780.53
2019-05-29T18:27:36.310Z,101779.57
2019-05-29T18:30:08.200Z,101783.71
2019-05-29T18:32:37.335Z,101777.29
2019-05-29T18:35:30.050Z,101790.33
2019-05-29T18:37:58.517Z,101789.91
2019-05-29T18:40:28.773Z,101785.41
2019-05-29T18:43:02.502Z,101790.67
2019-05-29T18:45:31.317Z,101800.52
2019-05-29T18:48:00.038Z,101805.41
2019-05-29T18:50:29.680Z,101805.27
2019-05-29T18:52:58.389Z,101809.41
2019-05-29T18:55:29.772Z,101809.78
2019-05-29T18:58:02.159Z,101806.48
2019-05-29T19:00:31.536Z,101806.48
2019-05-29T19:03:00.192Z,101812.25
2019-05-29T19:05:29.754Z,101810.06
2019-05-29T19:07:59.917Z,101814.70
2019-05-29T19:10:29.777Z,101815.08
2019-05-29T19:12:58.659Z,101823.30
2019-05-29T19:15:32.024Z,101830.83
2019-05-29T19:18:01.285Z,101831.20
2019-05-29T19:20:30.520Z,101833.66
2019-05-29T19:22:59.311Z,101836.72
2019-05-29T19:25:29.037Z,101837.49
2019-05-29T19:27:57.789Z,101840.27
2019-05-29T19:30:26.904Z,101839.11
2019-05-29T19:32:55.712Z,101841.01
2019-05-29T19:35:25.426Z,101841.09
2019-05-29T19:37:57.341Z,101847.14
2019-05-29T19:40:26.100Z,101853.41
2019-05-29T19:42:56.409Z,101860.53
2019-05-29T19:45:30.546Z,101863.13
2019-05-29T19:47:59.577Z,101864.69
2019-05-29T19:50:28.767Z,101863.85
2019-05-29T19:52:57.498Z,101867.42
2019-05-29T19:55:36.307Z,101874.55
2019-05-29T19:58:06.359Z,101875.89
2019-05-29T20:00:36.801Z,101876.44
2019-05-29T20:03:05.722Z,101877.70
2019-05-29T20:05:34.948Z,101879.53
2019-05-29T20:08:03.678Z,101877.86
2019-05-29T20:10:33.442Z,101885.43
2019-05-29T20:13:02.364Z,101888.63
2019-05-29T20:15:31.941Z,101883.61
2019-05-29T20:18:00.529Z,101883.88
2019-05-29T20:20:30.236Z,101892.25
2019-05-29T20:22:58.800Z,101897.22
2019-05-29T20:25:27.258Z,101896.70
2019-05-29T20:28:05.855Z,101903.95
2019-05-29T20:30:26.151Z,101903.52
2019-05-29T20:32:54.934Z,101903.88
2019-05-29T20:35:23.394Z,101903.42
2019-05-29T20:37:51.870Z,101909.31
2019-05-29T20:40:20.249Z,101910.51
2019-05-29T20:42:48.700Z,101907.81
2019-05-29T20:45:18.831Z,101911.91
2019-05-29T20:47:47.238Z,101928.05
2019-05-29T20:50:15.803Z,101925.20
2019-05-29T20:52:44.443Z,101927.63
2019-05-29T20:55:14.103Z,101924.31
2019-05-29T20:57:42.561Z,101922.26
2019-05-29T21:00:12.371Z,101927.13
2019-05-29T21:02:42.326Z,101933.51
2019-05-29T21:05:11.161Z,101928.02
2019-05-29T21:07:40.942Z,101930.88
2019-05-29T21:10:10.043Z,101925.89
2019-05-29T21:12:41.902Z,101926.27
2019-05-29T21:15:09.017Z,101929.47
2019-05-29T21:17:37.931Z,101934.86
2019-05-29T21:20:08.540Z,101936.43
2019-05-29T21:22:36.982Z,101940.64
2019-05-29T21:25:14.855Z,101937.16
2019-05-29T21:27:43.981Z,101934.12
2019-05-29T21:30:10.289Z,101937.48
2019-05-29T21:32:40.178Z,101937.82
2019-05-29T21:35:08.984Z,101935.83
2019-05-29T21:37:38.210Z,101937.88
2019-05-29T21:40:07.153Z,101937.55
2019-05-29T21:42:36.533Z,101939.39
2019-05-29T21:45:06.777Z,101942.59
2019-05-29T21:47:35.231Z,101942.92
2019-05-29T21:50:05.945Z,101938.22
2019-05-29T21:52:34.436Z,101941.28
2019-05-29T21:55:02.995Z,101943.98
2019-05-29T21:57:31.460Z,101946.72
2019-05-29T22:00:00.293Z,101945.59
2019-05-29T22:02:28.819Z,101946.09
2019-05-29T22:04:57.796Z,101945.42
2019-05-29T22:07:26.308Z,101949.63
2019-05-29T22:09:54.868Z,101952.14
2019-05-29T22:12:23.307Z,101950.09
2019-05-29T22:14:53.201Z,101954.33
2019-05-29T22:17:21.779Z,101960.71
2019-05-29T22:19:50.826Z,101960.58
2019-05-29T22:22:19.355Z,101961.12
2019-05-29T22:24:47.808Z,101964.31
2019-05-29T22:27:16.279Z,101959.78
2019-05-29T22:29:44.860Z,101961.97
2019-05-29T22:32:13.349Z,101961.97
2019-05-29T22:34:41.943Z,101961.00
2019-05-29T22:37:10.798Z,101967.88
2019-05-29T22:39:39.260Z,101964.73
2019-05-29T22:42:07.710Z,101965.56
2019-05-29T22:44:36.114Z,101968.45
2019-05-29T22:47:04.831Z,101969.30
2019-05-29T22:49:33.385Z,101972.82
2019-05-29T22:52:02.262Z,101972.84
2019-05-29T22:54:30.923Z,101971.67
2019-05-29T22:56:59.995Z,101974.86
2019-05-29T22:59:31.836Z,101969.48
2019-05-29T23:01:58.642Z,101969.32
2019-05-29T23:04:27.421Z,101969.16
2019-05-29T23:06:56.379Z,101964.95
2019-05-29T23:09:24.817Z,101971.67
2019-05-29T23:11:54.151Z,101972.84
2019-05-29T23:14:22.748Z,101976.73
2019-05-29T23:16:52.378Z,101971.17
2019-05-29T23:19:20.853Z,101974.55
2019-05-29T23:21:49.235Z,101967.84
2019-05-29T23:24:17.609Z,101972.20
2019-05-29T23:26:46.009Z,101968.00
2019-05-29T23:29:14.459Z,101967.19
2019-05-29T23:31:42.857Z,101977.59
2019-05-29T23:34:11.522Z,101970.23
2019-05-29T23:36:39.939Z,101967.37
2019-05-29T23:39:08.796Z,101966.22
2019-05-29T23:41:37.225Z,101960.20
2019-05-29T23:44:05.674Z,101960.87
2019-05-29T23:46:34.088Z,101956.19
2019-05-29T23:49:03.851Z,101958.88
2019-05-29T23:51:32.442Z,101956.86
2019-05-29T23:54:01.880Z,101959.24
2019-05-29T23:56:30.312Z,101959.89
2019-05-29T23:58:59.917Z,101959.89
